sensor_id;sensor_type;location;lat;lon;timestamp;P1;durP1;ratioP1;P2;durP2;ratioP2
70549;SDS011;58101;48.658;2.328;2022-11-23T00:03:41;16.80;;;4.28;;
70549;SDS011;58101;48.658;2.328;2022-11-23T00:06:07;20.60;;;5.38;;
70549;SDS011;58101;48.658;2.328;2022-11-23T00:08:33;17.15;;;4.28;;
70549;SDS011;58101;48.658;2.328;2022-11-23T00:10:59;20.70;;;5.03;;
70549;SDS011;58101;48.658;2.328;2022-11-23T00:13:24;20.85;;;4.82;;
70549;SDS011;58101;48.658;2.328;2022-11-23T00:15:50;15.70;;;5.10;;
70549;SDS011;58101;48.658;2.328;2022-11-23T00:18:16;18.80;;;4.30;;
70549;SDS011;58101;48.658;2.328;2022-11-23T00:20:41;19.00;;;3.20;;
70549;SDS011;58101;48.658;2.328;2022-11-23T00:23:07;16.80;;;4.53;;
70549;SDS011;58101;48.658;2.328;2022-11-23T00:25:33;18.27;;;3.95;;
70549;SDS011;58101;48.658;2.328;2022-11-23T00:27:59;17.58;;;4.10;;
70549;SDS011;58101;48.658;2.328;2022-11-23T00:30:24;25.30;;;5.22;;
70549;SDS011;58101;48.658;2.328;2022-11-23T00:32:50;18.38;;;4.20;;
70549;SDS011;58101;48.658;2.328;2022-11-23T00:35:15;20.45;;;4.50;;
70549;SDS011;58101;48.658;2.328;2022-11-23T00:37:41;19.48;;;4.85;;
70549;SDS011;58101;48.658;2.328;2022-11-23T00:40:07;18.80;;;3.90;;
70549;SDS011;58101;48.658;2.328;2022-11-23T00:42:33;18.20;;;3.72;;
70549;SDS011;58101;48.658;2.328;2022-11-23T00:44:59;13.95;;;4.18;;
70549;SDS011;58101;48.658;2.328;2022-11-23T00:47:24;16.42;;;4.18;;
70549;SDS011;58101;48.658;2.328;2022-11-23T00:49:50;16.35;;;3.97;;
70549;SDS011;58101;48.658;2.328;2022-11-23T00:52:15;13.55;;;3.50;;
70549;SDS011;58101;48.658;2.328;2022-11-23T00:54:41;21.40;;;4.20;;
70549;SDS011;58101;48.658;2.328;2022-11-23T00:57:07;12.43;;;3.22;;
70549;SDS011;58101;48.658;2.328;2022-11-23T00:59:32;16.83;;;3.58;;
70549;SDS011;58101;48.658;2.328;2022-11-23T01:01:58;14.18;;;3.15;;
70549;SDS011;58101;48.658;2.328;2022-11-23T01:04:24;15.52;;;3.47;;
70549;SDS011;58101;48.658;2.328;2022-11-23T01:06:49;15.63;;;3.17;;
70549;SDS011;58101;48.658;2.328;2022-11-23T01:09:21;14.05;;;3.35;;
70549;SDS011;58101;48.658;2.328;2022-11-23T01:11:50;13.32;;;2.80;;
70549;SDS011;58101;48.658;2.328;2022-11-23T01:14:16;17.27;;;3.78;;
70549;SDS011;58101;48.658;2.328;2022-11-23T01:16:42;20.65;;;3.50;;
70549;SDS011;58101;48.658;2.328;2022-11-23T01:19:09;18.58;;;3.28;;
70549;SDS011;58101;48.658;2.328;2022-11-23T01:21:37;11.68;;;2.78;;
70549;SDS011;58101;48.658;2.328;2022-11-23T01:24:04;9.82;;;2.55;;
70549;SDS011;58101;48.658;2.328;2022-11-23T01:26:34;15.10;;;3.08;;
70549;SDS011;58101;48.658;2.328;2022-11-23T01:29:00;13.02;;;2.80;;
70549;SDS011;58101;48.658;2.328;2022-11-23T01:31:25;16.23;;;2.75;;
70549;SDS011;58101;48.658;2.328;2022-11-23T01:33:52;19.95;;;2.63;;
70549;SDS011;58101;48.658;2.328;2022-11-23T01:36:20;12.95;;;2.40;;
70549;SDS011;58101;48.658;2.328;2022-11-23T01:38:48;14.25;;;2.58;;
70549;SDS011;58101;48.658;2.328;2022-11-23T01:41:15;16.38;;;2.75;;
70549;SDS011;58101;48.658;2.328;2022-11-23T01:43:43;12.48;;;2.78;;
70549;SDS011;58101;48.658;2.328;2022-11-23T01:46:09;16.40;;;2.83;;
70549;SDS011;58101;48.658;2.328;2022-11-23T01:48:37;12.93;;;3.00;;
70549;SDS011;58101;48.658;2.328;2022-11-23T01:51:13;14.15;;;2.65;;
70549;SDS011;58101;48.658;2.328;2022-11-23T01:53:44;16.40;;;2.72;;
70549;SDS011;58101;48.658;2.328;2022-11-23T01:56:14;10.52;;;2.58;;
70549;SDS011;58101;48.658;2.328;2022-11-23T01:58:43;11.52;;;2.28;;
70549;SDS011;58101;48.658;2.328;2022-11-23T02:01:12;15.52;;;2.42;;
70549;SDS011;58101;48.658;2.328;2022-11-23T02:03:38;13.35;;;2.58;;
70549;SDS011;58101;48.658;2.328;2022-11-23T02:06:07;10.68;;;2.58;;
70549;SDS011;58101;48.658;2.328;2022-11-23T02:08:37;12.23;;;2.40;;
70549;SDS011;58101;48.658;2.328;2022-11-23T02:11:03;13.75;;;2.25;;
70549;SDS011;58101;48.658;2.328;2022-11-23T02:13:29;11.30;;;2.33;;
70549;SDS011;58101;48.658;2.328;2022-11-23T02:15:55;13.73;;;2.78;;
70549;SDS011;58101;48.658;2.328;2022-11-23T02:18:24;13.82;;;2.50;;
70549;SDS011;58101;48.658;2.328;2022-11-23T02:20:52;13.93;;;2.50;;
70549;SDS011;58101;48.658;2.328;2022-11-23T02:26:21;15.70;;;2.80;;
70549;SDS011;58101;48.658;2.328;2022-11-23T02:28:57;14.68;;;2.33;;
70549;SDS011;58101;48.658;2.328;2022-11-23T02:31:34;11.80;;;2.65;;
70549;SDS011;58101;48.658;2.328;2022-11-23T02:34:00;11.30;;;2.58;;
70549;SDS011;58101;48.658;2.328;2022-11-23T02:39:06;11.23;;;2.45;;
70549;SDS011;58101;48.658;2.328;2022-11-23T02:41:43;16.45;;;2.67;;
70549;SDS011;58101;48.658;2.328;2022-11-23T02:44:20;13.30;;;2.40;;
70549;SDS011;58101;48.658;2.328;2022-11-23T02:46:47;10.10;;;2.45;;
70549;SDS011;58101;48.658;2.328;2022-11-23T02:49:12;12.05;;;2.90;;
70549;SDS011;58101;48.658;2.328;2022-11-23T02:51:38;13.65;;;2.72;;
70549;SDS011;58101;48.658;2.328;2022-11-23T02:54:04;14.25;;;3.08;;
70549;SDS011;58101;48.658;2.328;2022-11-23T02:56:29;11.60;;;2.67;;
70549;SDS011;58101;48.658;2.328;2022-11-23T02:58:55;11.75;;;2.90;;
70549;SDS011;58101;48.658;2.328;2022-11-23T03:01:21;13.93;;;2.85;;
70549;SDS011;58101;48.658;2.328;2022-11-23T03:03:46;10.15;;;2.15;;
70549;SDS011;58101;48.658;2.328;2022-11-23T03:06:12;13.35;;;2.55;;
70549;SDS011;58101;48.658;2.328;2022-11-23T03:08:38;13.13;;;2.38;;
70549;SDS011;58101;48.658;2.328;2022-11-23T03:11:03;13.82;;;2.47;;
70549;SDS011;58101;48.658;2.328;2022-11-23T03:13:29;12.02;;;2.25;;
70549;SDS011;58101;48.658;2.328;2022-11-23T03:15:55;13.40;;;2.90;;
70549;SDS011;58101;48.658;2.328;2022-11-23T03:18:21;14.30;;;2.40;;
70549;SDS011;58101;48.658;2.328;2022-11-23T03:20:47;9.70;;;1.90;;
70549;SDS011;58101;48.658;2.328;2022-11-23T03:23:12;12.32;;;2.20;;
70549;SDS011;58101;48.658;2.328;2022-11-23T03:25:38;17.45;;;2.40;;
70549;SDS011;58101;48.658;2.328;2022-11-23T03:28:04;11.30;;;2.20;;
70549;SDS011;58101;48.658;2.328;2022-11-23T03:30:29;14.43;;;2.60;;
70549;SDS011;58101;48.658;2.328;2022-11-23T03:32:55;14.65;;;2.78;;
70549;SDS011;58101;48.658;2.328;2022-11-23T03:35:21;11.38;;;2.10;;
70549;SDS011;58101;48.658;2.328;2022-11-23T03:37:47;10.73;;;2.40;;
70549;SDS011;58101;48.658;2.328;2022-11-23T03:40:13;13.75;;;2.58;;
70549;SDS011;58101;48.658;2.328;2022-11-23T03:42:39;15.45;;;2.40;;
70549;SDS011;58101;48.658;2.328;2022-11-23T03:45:05;12.45;;;2.00;;
70549;SDS011;58101;48.658;2.328;2022-11-23T03:47:32;14.25;;;2.55;;
70549;SDS011;58101;48.658;2.328;2022-11-23T03:49:58;10.88;;;2.30;;
70549;SDS011;58101;48.658;2.328;2022-11-23T03:52:23;14.23;;;2.88;;
70549;SDS011;58101;48.658;2.328;2022-11-23T03:54:49;11.60;;;2.13;;
70549;SDS011;58101;48.658;2.328;2022-11-23T03:57:14;13.68;;;2.40;;
70549;SDS011;58101;48.658;2.328;2022-11-23T03:59:40;13.13;;;2.65;;
70549;SDS011;58101;48.658;2.328;2022-11-23T04:02:06;13.68;;;2.50;;
70549;SDS011;58101;48.658;2.328;2022-11-23T04:04:32;11.68;;;2.35;;
70549;SDS011;58101;48.658;2.328;2022-11-23T04:06:58;15.07;;;2.92;;
70549;SDS011;58101;48.658;2.328;2022-11-23T04:09:24;13.48;;;2.72;;
70549;SDS011;58101;48.658;2.328;2022-11-23T04:11:50;16.80;;;2.72;;
70549;SDS011;58101;48.658;2.328;2022-11-23T04:14:15;14.70;;;2.60;;
70549;SDS011;58101;48.658;2.328;2022-11-23T04:16:41;12.65;;;3.05;;
70549;SDS011;58101;48.658;2.328;2022-11-23T04:19:07;14.88;;;3.00;;
70549;SDS011;58101;48.658;2.328;2022-11-23T04:21:33;13.23;;;2.67;;
70549;SDS011;58101;48.658;2.328;2022-11-23T04:23:59;16.63;;;3.05;;
70549;SDS011;58101;48.658;2.328;2022-11-23T04:26:24;16.67;;;3.15;;
70549;SDS011;58101;48.658;2.328;2022-11-23T04:28:50;13.45;;;3.28;;
70549;SDS011;58101;48.658;2.328;2022-11-23T04:31:15;17.05;;;3.17;;
70549;SDS011;58101;48.658;2.328;2022-11-23T04:33:41;18.80;;;3.15;;
70549;SDS011;58101;48.658;2.328;2022-11-23T04:36:07;13.68;;;3.03;;
70549;SDS011;58101;48.658;2.328;2022-11-23T04:38:33;15.25;;;3.47;;
70549;SDS011;58101;48.658;2.328;2022-11-23T04:40:58;13.68;;;2.95;;
70549;SDS011;58101;48.658;2.328;2022-11-23T04:43:24;17.83;;;3.20;;
70549;SDS011;58101;48.658;2.328;2022-11-23T04:45:50;12.73;;;2.90;;
70549;SDS011;58101;48.658;2.328;2022-11-23T04:48:15;16.80;;;2.97;;
70549;SDS011;58101;48.658;2.328;2022-11-23T04:50:41;14.60;;;3.10;;
70549;SDS011;58101;48.658;2.328;2022-11-23T04:53:07;13.10;;;3.50;;
70549;SDS011;58101;48.658;2.328;2022-11-23T04:55:33;14.18;;;3.80;;
70549;SDS011;58101;48.658;2.328;2022-11-23T04:57:59;17.13;;;3.50;;
70549;SDS011;58101;48.658;2.328;2022-11-23T05:00:25;17.67;;;3.72;;
70549;SDS011;58101;48.658;2.328;2022-11-23T05:02:51;14.60;;;3.45;;
70549;SDS011;58101;48.658;2.328;2022-11-23T05:05:16;16.48;;;3.63;;
70549;SDS011;58101;48.658;2.328;2022-11-23T05:07:42;16.30;;;3.83;;
70549;SDS011;58101;48.658;2.328;2022-11-23T05:10:08;18.40;;;4.25;;
70549;SDS011;58101;48.658;2.328;2022-11-23T05:12:34;16.45;;;3.55;;
70549;SDS011;58101;48.658;2.328;2022-11-23T05:15:00;18.45;;;3.88;;
70549;SDS011;58101;48.658;2.328;2022-11-23T05:17:27;16.88;;;3.92;;
70549;SDS011;58101;48.658;2.328;2022-11-23T05:19:52;13.85;;;3.28;;
70549;SDS011;58101;48.658;2.328;2022-11-23T05:22:19;20.15;;;3.53;;
70549;SDS011;58101;48.658;2.328;2022-11-23T05:24:45;19.65;;;3.22;;
70549;SDS011;58101;48.658;2.328;2022-11-23T05:27:11;11.98;;;2.88;;
70549;SDS011;58101;48.658;2.328;2022-11-23T05:29:37;17.15;;;3.22;;
70549;SDS011;58101;48.658;2.328;2022-11-23T05:32:03;18.45;;;2.83;;
70549;SDS011;58101;48.658;2.328;2022-11-23T05:34:29;17.05;;;3.20;;
70549;SDS011;58101;48.658;2.328;2022-11-23T05:36:54;12.85;;;2.53;;
70549;SDS011;58101;48.658;2.328;2022-11-23T05:39:20;12.45;;;2.28;;
70549;SDS011;58101;48.658;2.328;2022-11-23T05:41:45;15.35;;;2.83;;
70549;SDS011;58101;48.658;2.328;2022-11-23T05:44:11;12.48;;;2.95;;
70549;SDS011;58101;48.658;2.328;2022-11-23T05:46:37;12.65;;;2.80;;
70549;SDS011;58101;48.658;2.328;2022-11-23T05:49:02;12.98;;;2.40;;
70549;SDS011;58101;48.658;2.328;2022-11-23T05:51:28;12.15;;;2.65;;
70549;SDS011;58101;48.658;2.328;2022-11-23T05:53:54;12.52;;;2.55;;
70549;SDS011;58101;48.658;2.328;2022-11-23T05:56:22;12.23;;;2.38;;
70549;SDS011;58101;48.658;2.328;2022-11-23T05:58:48;16.10;;;2.70;;
70549;SDS011;58101;48.658;2.328;2022-11-23T06:01:13;13.85;;;2.65;;
70549;SDS011;58101;48.658;2.328;2022-11-23T06:03:39;12.02;;;2.30;;
70549;SDS011;58101;48.658;2.328;2022-11-23T06:06:05;11.45;;;2.63;;
70549;SDS011;58101;48.658;2.328;2022-11-23T06:08:30;12.27;;;2.38;;
70549;SDS011;58101;48.658;2.328;2022-11-23T06:10:58;11.77;;;2.65;;
70549;SDS011;58101;48.658;2.328;2022-11-23T06:13:25;11.77;;;2.13;;
70549;SDS011;58101;48.658;2.328;2022-11-23T06:15:51;11.63;;;2.30;;
70549;SDS011;58101;48.658;2.328;2022-11-23T06:18:16;15.90;;;2.53;;
70549;SDS011;58101;48.658;2.328;2022-11-23T06:20:42;9.65;;;2.33;;
70549;SDS011;58101;48.658;2.328;2022-11-23T06:23:07;10.25;;;2.60;;
70549;SDS011;58101;48.658;2.328;2022-11-23T06:25:33;9.27;;;2.30;;
70549;SDS011;58101;48.658;2.328;2022-11-23T06:27:59;9.88;;;2.33;;
70549;SDS011;58101;48.658;2.328;2022-11-23T06:30:26;12.23;;;3.03;;
70549;SDS011;58101;48.658;2.328;2022-11-23T06:32:54;9.52;;;2.13;;
70549;SDS011;58101;48.658;2.328;2022-11-23T06:35:20;11.05;;;2.35;;
70549;SDS011;58101;48.658;2.328;2022-11-23T06:37:50;8.45;;;2.08;;
70549;SDS011;58101;48.658;2.328;2022-11-23T06:40:18;8.75;;;2.05;;
70549;SDS011;58101;48.658;2.328;2022-11-23T06:42:44;12.77;;;2.63;;
70549;SDS011;58101;48.658;2.328;2022-11-23T06:45:10;8.63;;;2.15;;
70549;SDS011;58101;48.658;2.328;2022-11-23T06:47:36;10.85;;;2.13;;
70549;SDS011;58101;48.658;2.328;2022-11-23T06:50:01;10.07;;;1.85;;
70549;SDS011;58101;48.658;2.328;2022-11-23T06:52:27;10.00;;;2.15;;
70549;SDS011;58101;48.658;2.328;2022-11-23T06:54:53;12.38;;;2.20;;
70549;SDS011;58101;48.658;2.328;2022-11-23T06:57:19;8.07;;;2.13;;
70549;SDS011;58101;48.658;2.328;2022-11-23T06:59:44;8.88;;;2.30;;
70549;SDS011;58101;48.658;2.328;2022-11-23T07:02:10;10.13;;;2.22;;
70549;SDS011;58101;48.658;2.328;2022-11-23T07:04:36;8.95;;;1.90;;
70549;SDS011;58101;48.658;2.328;2022-11-23T07:07:02;9.30;;;2.45;;
70549;SDS011;58101;48.658;2.328;2022-11-23T07:09:28;11.98;;;2.03;;
70549;SDS011;58101;48.658;2.328;2022-11-23T07:11:53;7.07;;;2.13;;
70549;SDS011;58101;48.658;2.328;2022-11-23T07:14:19;10.18;;;2.15;;
70549;SDS011;58101;48.658;2.328;2022-11-23T07:16:45;9.63;;;1.98;;
70549;SDS011;58101;48.658;2.328;2022-11-23T07:19:11;8.30;;;2.13;;
70549;SDS011;58101;48.658;2.328;2022-11-23T07:21:36;7.03;;;1.88;;
70549;SDS011;58101;48.658;2.328;2022-11-23T07:24:02;9.55;;;2.10;;
70549;SDS011;58101;48.658;2.328;2022-11-23T07:26:28;12.85;;;3.10;;
70549;SDS011;58101;48.658;2.328;2022-11-23T07:28:54;12.02;;;2.60;;
70549;SDS011;58101;48.658;2.328;2022-11-23T07:31:19;10.23;;;2.10;;
70549;SDS011;58101;48.658;2.328;2022-11-23T07:33:45;11.95;;;2.10;;
70549;SDS011;58101;48.658;2.328;2022-11-23T07:36:11;8.88;;;1.83;;
70549;SDS011;58101;48.658;2.328;2022-11-23T07:38:37;14.10;;;1.83;;
70549;SDS011;58101;48.658;2.328;2022-11-23T07:41:02;9.52;;;1.73;;
70549;SDS011;58101;48.658;2.328;2022-11-23T07:43:28;9.70;;;1.90;;
70549;SDS011;58101;48.658;2.328;2022-11-23T07:45:54;5.55;;;1.35;;
70549;SDS011;58101;48.658;2.328;2022-11-23T07:48:21;9.63;;;1.88;;
70549;SDS011;58101;48.658;2.328;2022-11-23T07:50:47;5.13;;;1.42;;
70549;SDS011;58101;48.658;2.328;2022-11-23T07:53:16;6.95;;;1.40;;
70549;SDS011;58101;48.658;2.328;2022-11-23T07:55:41;8.60;;;1.42;;
70549;SDS011;58101;48.658;2.328;2022-11-23T07:58:08;7.53;;;1.52;;
70549;SDS011;58101;48.658;2.328;2022-11-23T08:00:34;7.35;;;1.50;;
70549;SDS011;58101;48.658;2.328;2022-11-23T08:03:00;5.80;;;1.50;;
70549;SDS011;58101;48.658;2.328;2022-11-23T08:05:25;9.13;;;1.90;;
70549;SDS011;58101;48.658;2.328;2022-11-23T08:07:56;11.55;;;1.65;;
70549;SDS011;58101;48.658;2.328;2022-11-23T08:10:26;7.50;;;1.70;;
70549;SDS011;58101;48.658;2.328;2022-11-23T08:12:55;7.55;;;1.70;;
70549;SDS011;58101;48.658;2.328;2022-11-23T08:15:24;8.07;;;1.77;;
70549;SDS011;58101;48.658;2.328;2022-11-23T08:17:59;13.38;;;4.22;;
70549;SDS011;58101;48.658;2.328;2022-11-23T08:20:26;22.60;;;10.27;;
70549;SDS011;58101;48.658;2.328;2022-11-23T08:25:22;30.60;;;10.38;;
70549;SDS011;58101;48.658;2.328;2022-11-23T08:27:53;23.90;;;8.52;;
70549;SDS011;58101;48.658;2.328;2022-11-23T08:30:19;80.07;;;23.77;;
70549;SDS011;58101;48.658;2.328;2022-11-23T08:32:45;27.80;;;10.00;;
70549;SDS011;58101;48.658;2.328;2022-11-23T08:35:11;36.67;;;10.57;;
70549;SDS011;58101;48.658;2.328;2022-11-23T08:37:36;15.50;;;6.10;;
70549;SDS011;58101;48.658;2.328;2022-11-23T08:40:02;15.93;;;6.40;;
70549;SDS011;58101;48.658;2.328;2022-11-23T08:42:28;8.55;;;3.05;;
70549;SDS011;58101;48.658;2.328;2022-11-23T08:44:54;10.32;;;4.13;;
70549;SDS011;58101;48.658;2.328;2022-11-23T08:47:19;12.50;;;2.55;;
70549;SDS011;58101;48.658;2.328;2022-11-23T08:49:45;9.57;;;2.55;;
70549;SDS011;58101;48.658;2.328;2022-11-23T08:52:10;10.95;;;3.17;;
70549;SDS011;58101;48.658;2.328;2022-11-23T08:54:36;11.38;;;3.63;;
70549;SDS011;58101;48.658;2.328;2022-11-23T08:57:01;7.97;;;2.40;;
70549;SDS011;58101;48.658;2.328;2022-11-23T08:59:27;11.02;;;4.20;;
70549;SDS011;58101;48.658;2.328;2022-11-23T09:01:53;7.63;;;2.03;;
70549;SDS011;58101;48.658;2.328;2022-11-23T09:04:18;9.40;;;2.58;;
70549;SDS011;58101;48.658;2.328;2022-11-23T09:06:44;8.25;;;2.85;;
70549;SDS011;58101;48.658;2.328;2022-11-23T09:09:10;10.85;;;2.40;;
70549;SDS011;58101;48.658;2.328;2022-11-23T09:11:36;6.35;;;1.88;;
70549;SDS011;58101;48.658;2.328;2022-11-23T09:14:01;5.53;;;1.75;;
70549;SDS011;58101;48.658;2.328;2022-11-23T09:16:27;6.18;;;1.90;;
70549;SDS011;58101;48.658;2.328;2022-11-23T09:18:56;12.10;;;3.70;;
70549;SDS011;58101;48.658;2.328;2022-11-23T09:21:22;8.02;;;2.30;;
70549;SDS011;58101;48.658;2.328;2022-11-23T09:23:53;6.60;;;1.80;;
70549;SDS011;58101;48.658;2.328;2022-11-23T09:26:19;8.02;;;2.08;;
70549;SDS011;58101;48.658;2.328;2022-11-23T09:28:44;10.80;;;3.97;;
70549;SDS011;58101;48.658;2.328;2022-11-23T09:31:10;12.77;;;3.70;;
70549;SDS011;58101;48.658;2.328;2022-11-23T09:33:37;22.55;;;10.05;;
70549;SDS011;58101;48.658;2.328;2022-11-23T09:36:03;7.60;;;1.88;;
70549;SDS011;58101;48.658;2.328;2022-11-23T09:38:29;12.93;;;4.38;;
70549;SDS011;58101;48.658;2.328;2022-11-23T09:41:13;8.85;;;2.70;;
70549;SDS011;58101;48.658;2.328;2022-11-23T09:43:48;11.48;;;4.43;;
70549;SDS011;58101;48.658;2.328;2022-11-23T09:49:16;10.35;;;3.28;;
70549;SDS011;58101;48.658;2.328;2022-11-23T09:51:43;11.00;;;2.80;;
70549;SDS011;58101;48.658;2.328;2022-11-23T09:56:46;13.82;;;4.45;;
70549;SDS011;58101;48.658;2.328;2022-11-23T10:01:56;8.52;;;2.60;;
70549;SDS011;58101;48.658;2.328;2022-11-23T10:04:32;8.73;;;2.97;;
70549;SDS011;58101;48.658;2.328;2022-11-23T10:07:02;7.28;;;2.53;;
70549;SDS011;58101;48.658;2.328;2022-11-23T10:23:12;10.43;;;4.10;;
70549;SDS011;58101;48.658;2.328;2022-11-23T10:25:51;14.70;;;5.35;;
70549;SDS011;58101;48.658;2.328;2022-11-23T10:28:18;10.73;;;3.42;;
70549;SDS011;58101;48.658;2.328;2022-11-23T10:30:47;11.70;;;4.57;;
70549;SDS011;58101;48.658;2.328;2022-11-23T10:33:27;12.40;;;4.10;;
70549;SDS011;58101;48.658;2.328;2022-11-23T10:35:56;9.45;;;4.22;;
70549;SDS011;58101;48.658;2.328;2022-11-23T10:38:25;10.80;;;3.67;;
70549;SDS011;58101;48.658;2.328;2022-11-23T10:40:57;9.13;;;2.60;;
70549;SDS011;58101;48.658;2.328;2022-11-23T10:43:35;8.07;;;3.00;;
70549;SDS011;58101;48.658;2.328;2022-11-23T10:48:52;33.75;;;15.88;;
70549;SDS011;58101;48.658;2.328;2022-11-23T10:53:56;24.83;;;11.90;;
70549;SDS011;58101;48.658;2.328;2022-11-23T10:56:25;11.30;;;3.13;;
70549;SDS011;58101;48.658;2.328;2022-11-23T10:58:50;15.00;;;7.55;;
70549;SDS011;58101;48.658;2.328;2022-11-23T11:01:23;10.30;;;4.65;;
70549;SDS011;58101;48.658;2.328;2022-11-23T11:03:51;14.82;;;5.60;;
70549;SDS011;58101;48.658;2.328;2022-11-23T11:06:22;17.88;;;7.80;;
70549;SDS011;58101;48.658;2.328;2022-11-23T11:08:53;34.72;;;16.83;;
70549;SDS011;58101;48.658;2.328;2022-11-23T11:11:21;10.55;;;4.00;;
70549;SDS011;58101;48.658;2.328;2022-11-23T11:16:54;9.15;;;3.67;;
70549;SDS011;58101;48.658;2.328;2022-11-23T11:19:26;28.23;;;14.60;;
70549;SDS011;58101;48.658;2.328;2022-11-23T11:21:53;22.45;;;10.27;;
70549;SDS011;58101;48.658;2.328;2022-11-23T11:24:20;10.05;;;3.25;;
70549;SDS011;58101;48.658;2.328;2022-11-23T11:26:51;8.93;;;2.72;;
70549;SDS011;58101;48.658;2.328;2022-11-23T11:37:47;9.55;;;2.85;;
70549;SDS011;58101;48.658;2.328;2022-11-23T11:43:07;8.82;;;3.10;;
70549;SDS011;58101;48.658;2.328;2022-11-23T11:45:37;11.23;;;3.80;;
70549;SDS011;58101;48.658;2.328;2022-11-23T11:48:15;10.10;;;3.25;;
70549;SDS011;58101;48.658;2.328;2022-11-23T11:50:55;7.63;;;2.90;;
70549;SDS011;58101;48.658;2.328;2022-11-23T11:53:44;7.28;;;2.70;;
70549;SDS011;58101;48.658;2.328;2022-11-23T11:56:24;6.93;;;2.22;;
70549;SDS011;58101;48.658;2.328;2022-11-23T11:59:02;5.60;;;1.70;;
70549;SDS011;58101;48.658;2.328;2022-11-23T12:01:50;8.45;;;1.60;;
70549;SDS011;58101;48.658;2.328;2022-11-23T12:04:42;5.65;;;1.50;;
70549;SDS011;58101;48.658;2.328;2022-11-23T12:07:59;6.18;;;1.52;;
70549;SDS011;58101;48.658;2.328;2022-11-23T12:10:53;7.57;;;1.50;;
70549;SDS011;58101;48.658;2.328;2022-11-23T12:13:18;6.95;;;1.80;;
70549;SDS011;58101;48.658;2.328;2022-11-23T12:15:53;7.18;;;2.03;;
70549;SDS011;58101;48.658;2.328;2022-11-23T12:35:00;6.75;;;1.98;;
70549;SDS011;58101;48.658;2.328;2022-11-23T12:40:18;5.53;;;1.30;;
70549;SDS011;58101;48.658;2.328;2022-11-23T12:42:59;8.05;;;1.55;;
70549;SDS011;58101;48.658;2.328;2022-11-23T12:50:56;5.82;;;1.25;;
70549;SDS011;58101;48.658;2.328;2022-11-23T12:58:45;9.20;;;1.65;;
70549;SDS011;58101;48.658;2.328;2022-11-23T13:01:14;6.60;;;1.70;;
70549;SDS011;58101;48.658;2.328;2022-11-23T13:06:49;7.50;;;2.13;;
70549;SDS011;58101;48.658;2.328;2022-11-23T13:23:23;9.63;;;2.15;;
70549;SDS011;58101;48.658;2.328;2022-11-23T13:28:45;9.20;;;1.60;;
70549;SDS011;58101;48.658;2.328;2022-11-23T13:33:44;7.82;;;1.42;;
70549;SDS011;58101;48.658;2.328;2022-11-23T13:36:32;11.98;;;1.65;;
70549;SDS011;58101;48.658;2.328;2022-11-23T13:38:59;9.05;;;1.65;;
70549;SDS011;58101;48.658;2.328;2022-11-23T13:44:09;7.45;;;1.20;;
70549;SDS011;58101;48.658;2.328;2022-11-23T13:46:36;10.43;;;1.50;;
70549;SDS011;58101;48.658;2.328;2022-11-23T13:49:02;14.30;;;1.77;;
70549;SDS011;58101;48.658;2.328;2022-11-23T13:54:28;9.40;;;1.60;;
70549;SDS011;58101;48.658;2.328;2022-11-23T13:56:58;10.77;;;1.50;;
70549;SDS011;58101;48.658;2.328;2022-11-23T13:59:32;8.38;;;1.73;;
70549;SDS011;58101;48.658;2.328;2022-11-23T14:04:30;10.88;;;1.73;;
70549;SDS011;58101;48.658;2.328;2022-11-23T14:10:00;9.73;;;1.50;;
70549;SDS011;58101;48.658;2.328;2022-11-23T14:17:54;11.38;;;1.85;;
70549;SDS011;58101;48.658;2.328;2022-11-23T14:26:47;12.60;;;2.22;;
70549;SDS011;58101;48.658;2.328;2022-11-23T14:40:26;6.30;;;1.17;;
70549;SDS011;58101;48.658;2.328;2022-11-23T14:42:55;9.77;;;1.20;;
70549;SDS011;58101;48.658;2.328;2022-11-23T14:45:22;8.80;;;1.35;;
70549;SDS011;58101;48.658;2.328;2022-11-23T14:47:53;11.48;;;2.00;;
70549;SDS011;58101;48.658;2.328;2022-11-23T14:50:26;9.35;;;1.50;;
70549;SDS011;58101;48.658;2.328;2022-11-23T14:52:53;11.20;;;1.45;;
70549;SDS011;58101;48.658;2.328;2022-11-23T14:55:25;9.50;;;1.50;;
70549;SDS011;58101;48.658;2.328;2022-11-23T14:57:54;10.73;;;1.30;;
70549;SDS011;58101;48.658;2.328;2022-11-23T15:02:54;13.90;;;2.35;;
70549;SDS011;58101;48.658;2.328;2022-11-23T15:05:25;9.48;;;2.00;;
70549;SDS011;58101;48.658;2.328;2022-11-23T15:13:24;9.32;;;1.80;;
70549;SDS011;58101;48.658;2.328;2022-11-23T15:15:55;10.13;;;1.92;;
70549;SDS011;58101;48.658;2.328;2022-11-23T15:18:28;8.90;;;1.70;;
70549;SDS011;58101;48.658;2.328;2022-11-23T15:21:03;11.70;;;2.15;;
70549;SDS011;58101;48.658;2.328;2022-11-23T15:28:45;12.75;;;1.90;;
70549;SDS011;58101;48.658;2.328;2022-11-23T15:33:49;12.05;;;1.80;;
70549;SDS011;58101;48.658;2.328;2022-11-23T15:36:19;11.75;;;1.88;;
70549;SDS011;58101;48.658;2.328;2022-11-23T15:38:49;8.07;;;1.80;;
70549;SDS011;58101;48.658;2.328;2022-11-23T15:41:16;10.15;;;2.13;;
70549;SDS011;58101;48.658;2.328;2022-11-23T15:43:58;12.82;;;2.20;;
70549;SDS011;58101;48.658;2.328;2022-11-23T15:46:28;20.95;;;7.10;;
70549;SDS011;58101;48.658;2.328;2022-11-23T15:48:59;30.70;;;10.77;;
70549;SDS011;58101;48.658;2.328;2022-11-23T15:51:28;30.10;;;10.55;;
70549;SDS011;58101;48.658;2.328;2022-11-23T15:53:57;23.33;;;9.23;;
70549;SDS011;58101;48.658;2.328;2022-11-23T15:56:26;28.83;;;11.27;;
70549;SDS011;58101;48.658;2.328;2022-11-23T16:01:45;18.52;;;4.63;;
70549;SDS011;58101;48.658;2.328;2022-11-23T16:07:23;19.67;;;6.72;;
70549;SDS011;58101;48.658;2.328;2022-11-23T16:12:30;19.92;;;6.18;;
70549;SDS011;58101;48.658;2.328;2022-11-23T16:15:28;23.40;;;7.97;;
70549;SDS011;58101;48.658;2.328;2022-11-23T16:17:54;17.02;;;5.53;;
70549;SDS011;58101;48.658;2.328;2022-11-23T16:20:21;20.35;;;5.28;;
70549;SDS011;58101;48.658;2.328;2022-11-23T16:22:49;14.30;;;3.75;;
70549;SDS011;58101;48.658;2.328;2022-11-23T16:25:20;13.02;;;3.75;;
70549;SDS011;58101;48.658;2.328;2022-11-23T16:28:03;21.25;;;5.40;;
70549;SDS011;58101;48.658;2.328;2022-11-23T16:30:39;17.45;;;5.72;;
70549;SDS011;58101;48.658;2.328;2022-11-23T16:33:13;21.50;;;6.07;;
70549;SDS011;58101;48.658;2.328;2022-11-23T16:35:41;27.75;;;7.22;;
70549;SDS011;58101;48.658;2.328;2022-11-23T16:38:07;75.22;;;31.67;;
70549;SDS011;58101;48.658;2.328;2022-11-23T16:40:32;49.30;;;21.55;;
70549;SDS011;58101;48.658;2.328;2022-11-23T16:42:58;28.30;;;7.97;;
70549;SDS011;58101;48.658;2.328;2022-11-23T16:45:24;25.27;;;9.20;;
70549;SDS011;58101;48.658;2.328;2022-11-23T16:47:57;27.10;;;10.23;;
70549;SDS011;58101;48.658;2.328;2022-11-23T16:50:25;28.73;;;8.88;;
70549;SDS011;58101;48.658;2.328;2022-11-23T16:53:13;24.73;;;9.48;;
70549;SDS011;58101;48.658;2.328;2022-11-23T16:55:39;23.27;;;8.88;;
70549;SDS011;58101;48.658;2.328;2022-11-23T16:58:05;37.38;;;13.23;;
70549;SDS011;58101;48.658;2.328;2022-11-23T17:00:33;27.58;;;9.27;;
70549;SDS011;58101;48.658;2.328;2022-11-23T17:03:00;31.92;;;14.07;;
70549;SDS011;58101;48.658;2.328;2022-11-23T17:05:25;24.92;;;7.28;;
70549;SDS011;58101;48.658;2.328;2022-11-23T17:07:51;19.80;;;5.70;;
70549;SDS011;58101;48.658;2.328;2022-11-23T17:10:16;32.08;;;8.68;;
70549;SDS011;58101;48.658;2.328;2022-11-23T17:12:46;23.92;;;6.85;;
70549;SDS011;58101;48.658;2.328;2022-11-23T17:15:14;22.88;;;7.82;;
70549;SDS011;58101;48.658;2.328;2022-11-23T17:17:42;21.67;;;6.80;;
70549;SDS011;58101;48.658;2.328;2022-11-23T17:20:12;22.08;;;7.07;;
70549;SDS011;58101;48.658;2.328;2022-11-23T17:22:38;25.55;;;9.23;;
70549;SDS011;58101;48.658;2.328;2022-11-23T17:25:04;24.75;;;6.28;;
70549;SDS011;58101;48.658;2.328;2022-11-23T17:27:31;22.40;;;5.88;;